Time;durP1;ratioP1;P1;durP2;ratioP2;P2;SDS_P1;SDS_P2;PMS_P1;PMS_P2;Temp;Humidity;BMP_temperature;BMP_pressure;BME280_temperature;BME280_humidity;BME280_pressure;Samples;Min_cycle;Max_cycle;Signal;HPM_P1;HPM_P2
2022/02/26 00:00:58;;;;;;;15.87;4.03;;;;;;;1.88;100.00;103234.59;5133978;28;20427;-35
2022/02/26 00:03:23;;;;;;;17.43;4.07;;;;;;;1.87;99.87;103249.75;5134434;28;20367;-35
2022/02/26 00:05:49;;;;;;;16.88;3.85;;;;;;;1.89;99.87;103249.63;5134102;28;20023;-35
2022/02/26 00:08:14;;;;;;;11.60;3.47;;;;;;;1.79;100.00;103226.28;5133881;28;20341;-35
2022/02/26 00:10:39;;;;;;;14.57;4.83;;;;;;;1.95;100.00;103251.81;5134017;28;20481;-35
2022/02/26 00:13:05;;;;;;;9.07;3.40;;;;;;;1.96;100.00;103253.56;5133549;28;20045;-35
2022/02/26 00:15:30;;;;;;;15.37;4.20;;;;;;;1.91;100.00;103242.38;5134192;28;20027;-35
2022/02/26 00:17:56;;;;;;;11.43;4.03;;;;;;;1.67;99.29;103243.25;5133503;28;20051;-35
2022/02/26 00:20:21;;;;;;;10.50;3.17;;;;;;;1.66;98.91;103241.53;5133810;28;20712;-35
2022/02/26 00:22:46;;;;;;;8.90;2.97;;;;;;;1.67;99.76;103237.91;5133764;28;20037;-36
2022/02/26 00:25:12;;;;;;;8.20;3.07;;;;;;;1.69;100.00;103248.44;5133685;28;20109;-35
2022/02/26 00:27:38;;;;;;;9.88;3.30;;;;;;;1.70;100.00;103251.00;5134433;27;20111;-35
2022/02/26 00:30:06;;;;;;;10.60;3.53;;;;;;;1.78;100.00;103250.44;5137279;27;20361;-35
2022/02/26 00:32:32;;;;;;;8.43;2.97;;;;;;;1.70;100.00;103259.00;5137730;27;20134;-35
2022/02/26 00:34:57;;;;;;;9.73;3.77;;;;;;;1.66;100.00;103259.34;5137229;27;20070;-35
2022/02/26 00:37:22;;;;;;;13.33;3.53;;;;;;;1.59;99.83;103269.63;5137158;27;20030;-35
2022/02/26 00:39:48;;;;;;;12.37;3.93;;;;;;;1.66;100.00;103264.66;5137994;27;20035;-35
2022/02/26 00:42:13;;;;;;;14.97;3.57;;;;;;;1.63;100.00;103267.59;5136443;27;20443;-36
2022/02/26 00:44:38;;;;;;;9.13;3.57;;;;;;;1.57;100.00;103268.88;5137275;27;20050;-35
2022/02/26 00:47:05;;;;;;;12.87;4.20;;;;;;;1.51;99.40;103286.19;5135684;27;20031;-35
2022/02/26 00:49:49;;;;;;;;;;;;;;;1.60;99.19;103294.47;5137880;27;20030;-36
2022/02/26 00:52:23;;;;;;;12.27;3.83;;;;;;;1.38;99.27;103298.72;5137099;27;19915;-35
2022/02/26 00:54:50;;;;;;;22.17;4.28;;;;;;;1.22;99.60;103276.75;5136584;27;20067;-35
2022/02/26 00:57:16;;;;;;;12.38;4.57;;;;;;;1.40;100.00;103314.59;5137058;27;20050;-35
2022/02/26 00:59:41;;;;;;;16.88;6.13;;;;;;;1.35;100.00;103309.56;5136796;27;20462;-35
2022/02/26 01:02:07;;;;;;;15.98;4.63;;;;;;;1.32;100.00;103317.81;5137307;27;20115;-35
2022/02/26 01:04:34;;;;;;;13.32;4.68;;;;;;;1.29;100.00;103318.88;5137032;27;20035;-35
2022/02/26 01:07:00;;;;;;;10.48;4.30;;;;;;;1.31;100.00;103326.75;5137365;27;20097;-35
2022/02/26 01:09:25;;;;;;;18.67;4.63;;;;;;;1.21;100.00;103315.88;5136582;27;20059;-36
2022/02/26 01:11:50;;;;;;;11.93;4.27;;;;;;;1.31;100.00;103320.56;5136554;27;20118;-35
2022/02/26 01:14:16;;;;;;;11.83;4.07;;;;;;;1.31;100.00;103316.09;5136830;27;20031;-35
2022/02/26 01:16:42;;;;;;;14.43;4.73;;;;;;;1.26;100.00;103319.09;5136552;27;20111;-35
2022/02/26 01:19:07;;;;;;;11.75;4.13;;;;;;;1.34;100.00;103337.22;5136068;27;20260;-35
2022/02/26 01:21:33;;;;;;;11.70;3.50;;;;;;;1.32;100.00;103324.94;5136353;27;20027;-35
2022/02/26 01:23:59;;;;;;;10.77;3.75;;;;;;;1.39;100.00;103321.72;5136270;27;20533;-35
2022/02/26 01:26:25;;;;;;;15.32;4.28;;;;;;;1.27;100.00;103307.47;5136279;27;20105;-36
2022/02/26 01:28:51;;;;;;;12.38;4.60;;;;;;;1.16;100.00;103296.72;5136452;27;20023;-35
2022/02/26 01:31:16;;;;;;;11.90;4.00;;;;;;;1.40;100.00;103322.59;5136067;27;20027;-35
2022/02/26 01:33:42;;;;;;;10.53;4.40;;;;;;;1.22;100.00;103317.63;5136562;27;20047;-35
2022/02/26 01:36:08;;;;;;;13.38;5.00;;;;;;;1.10;100.00;103302.50;5136042;27;20034;-35
2022/02/26 01:38:34;;;;;;;12.57;3.90;;;;;;;1.33;100.00;103335.50;5136314;27;20039;-35
2022/02/26 01:41:00;;;;;;;10.73;4.30;;;;;;;1.08;100.00;103307.09;5135220;27;20429;-35
2022/02/26 01:43:25;;;;;;;10.82;4.68;;;;;;;1.27;100.00;103339.47;5135466;27;20103;-35
2022/02/26 01:45:51;;;;;;;10.70;3.73;;;;;;;1.24;100.00;103336.16;5136180;27;20030;-36
2022/02/26 01:48:17;;;;;;;14.80;4.75;;;;;;;1.16;100.00;103336.69;5135532;27;20451;-35
2022/02/26 01:50:42;;;;;;;13.27;4.80;;;;;;;1.21;100.00;103326.56;5135961;27;20059;-36
2022/02/26 01:53:07;;;;;;;7.67;3.77;;;;;;;1.31;100.00;103331.22;5135659;27;20023;-36
2022/02/26 01:55:33;;;;;;;10.20;4.17;;;;;;;1.28;100.00;103327.00;5136428;27;20347;-35
2022/02/26 01:57:59;;;;;;;10.63;3.97;;;;;;;1.27;100.00;103323.47;5135532;27;20058;-35
2022/02/26 02:00:25;;;;;;;10.48;3.95;;;;;;;1.26;100.00;103323.56;5135660;27;20386;-36
2022/02/26 02:02:53;;;;;;;10.85;4.05;;;;;;;1.19;100.00;103325.81;5135959;27;20105;-35
2022/02/26 02:05:18;;;;;;;11.85;4.78;;;;;;;1.11;100.00;103314.84;5135458;27;20037;-36
2022/02/26 02:07:44;;;;;;;9.35;3.33;;;;;;;1.02;99.88;103329.69;5136123;27;20027;-35
2022/02/26 02:10:10;;;;;;;9.55;4.13;;;;;;;1.20;100.00;103324.00;5135592;27;20058;-35
2022/02/26 02:12:35;;;;;;;11.33;4.20;;;;;;;1.12;100.00;103327.19;5135292;27;20062;-35
2022/02/26 02:15:01;;;;;;;13.77;4.77;;;;;;;0.94;100.00;103296.56;5135586;27;20363;-35
2022/02/26 02:17:26;;;;;;;19.23;5.00;;;;;;;0.94;100.00;103309.88;5134964;27;20269;-35
2022/02/26 02:19:51;;;;;;;11.33;4.87;;;;;;;0.94;100.00;103315.19;5135476;27;20471;-35
2022/02/26 02:22:21;;;;;;;12.07;4.40;;;;;;;0.74;99.69;103296.13;5135176;27;20060;-35
2022/02/26 02:24:47;;;;;;;12.18;4.55;;;;;;;0.97;100.00;103315.81;5135534;27;20019;-35
2022/02/26 02:27:16;;;;;;;13.20;5.63;;;;;;;0.83;100.00;103317.72;5134753;27;20033;-35
2022/02/26 02:29:42;;;;;;;13.10;5.72;;;;;;;0.84;100.00;103330.13;5135264;27;20029;-35
2022/02/26 02:32:07;;;;;;;14.85;5.43;;;;;;;0.89;100.00;103328.00;5134971;27;20149;-35
2022/02/26 02:34:33;;;;;;;13.48;5.07;;;;;;;0.91;100.00;103323.41;5134969;27;20043;-35
2022/02/26 02:36:59;;;;;;;15.27;5.20;;;;;;;0.89;100.00;103318.19;5134876;27;20023;-35
2022/02/26 02:39:24;;;;;;;12.73;5.05;;;;;;;0.97;100.00;103321.13;5135537;27;20106;-35
2022/02/26 02:41:50;;;;;;;10.30;5.00;;;;;;;0.91;100.00;103320.72;5133988;27;20039;-35
2022/02/26 02:44:15;;;;;;;9.07;4.30;;;;;;;1.01;100.00;103319.13;5135155;27;20023;-35
2022/02/26 02:46:42;;;;;;;11.40;4.97;;;;;;;1.02;100.00;103320.81;5134721;27;20467;-35
2022/02/26 02:49:07;;;;;;;11.85;5.05;;;;;;;1.00;100.00;103323.59;5134490;27;20023;-35
2022/02/26 02:51:33;;;;;;;13.13;5.43;;;;;;;0.82;100.00;103314.22;5134386;27;20031;-35
2022/02/26 02:53:59;;;;;;;15.57;5.07;;;;;;;0.90;100.00;103327.88;5134655;27;20389;-35
2022/02/26 02:56:24;;;;;;;14.80;6.23;;;;;;;0.80;100.00;103317.97;5135008;27;20505;-35
2022/02/26 02:58:49;;;;;;;12.73;4.87;;;;;;;0.77;100.00;103319.03;5134455;27;20379;-35
2022/02/26 03:01:15;;;;;;;8.90;5.17;;;;;;;0.88;100.00;103326.25;5134794;27;20046;-35
2022/02/26 03:03:40;;;;;;;10.87;4.70;;;;;;;0.99;100.00;103313.06;5134528;27;20055;-35
2022/02/26 03:06:06;;;;;;;11.23;4.80;;;;;;;0.75;100.00;103329.78;5133118;27;20484;-35
2022/02/26 03:08:31;;;;;;;13.83;5.27;;;;;;;0.90;100.00;103327.88;5134195;27;20046;-35
2022/02/26 03:10:58;;;;;;;8.63;4.85;;;;;;;0.85;100.00;103331.81;5134465;27;20371;-36
2022/02/26 03:13:25;;;;;;;13.52;4.63;;;;;;;0.87;100.00;103325.41;5134359;27;20023;-35
2022/02/26 03:15:51;;;;;;;9.73;4.65;;;;;;;0.84;100.00;103316.81;5134396;27;20023;-35
2022/02/26 03:18:18;;;;;;;14.90;5.35;;;;;;;0.86;100.00;103338.84;5134815;27;20042;-35
2022/02/26 03:20:43;;;;;;;14.05;4.82;;;;;;;0.77;100.00;103351.84;5134538;27;20457;-35
2022/02/26 03:23:09;;;;;;;12.90;5.15;;;;;;;0.71;100.00;103343.41;5134186;28;20057;-35
2022/02/26 03:25:34;;;;;;;12.38;5.25;;;;;;;0.64;100.00;103337.69;5134386;28;20399;-35
2022/02/26 03:28:00;;;;;;;11.33;5.20;;;;;;;0.60;100.00;103362.81;5134738;28;20034;-35
2022/02/26 03:30:25;;;;;;;15.93;5.30;;;;;;;0.60;100.00;103368.13;5134098;28;20030;-35
2022/02/26 03:32:50;;;;;;;22.17;6.03;;;;;;;0.46;100.00;103352.22;5134158;28;20057;-35
2022/02/26 03:35:16;;;;;;;16.37;5.70;;;;;;;0.49;100.00;103354.69;5134428;28;20102;-35
2022/02/26 03:37:42;;;;;;;16.85;5.28;;;;;;;0.41;100.00;103365.00;5134077;28;20027;-35
2022/02/26 03:40:09;;;;;;;14.10;5.63;;;;;;;0.41;100.00;103378.31;5134190;28;20035;-35
2022/02/26 03:42:35;;;;;;;12.63;5.10;;;;;;;0.37;100.00;103384.78;5134166;28;20274;-35
2022/02/26 03:45:00;;;;;;;13.93;5.88;;;;;;;0.35;100.00;103386.72;5134702;28;20109;-35
2022/02/26 03:47:26;;;;;;;12.73;5.73;;;;;;;0.31;100.00;103387.88;5133869;28;20031;-35
2022/02/26 03:49:51;;;;;;;16.70;5.67;;;;;;;0.21;100.00;103367.19;5134040;28;20033;-35
2022/02/26 03:52:18;;;;;;;10.70;4.60;;;;;;;0.47;100.00;103392.06;5134065;28;20048;-35
2022/02/26 03:54:43;;;;;;;14.85;5.00;;;;;;;0.58;100.00;103385.16;5133829;28;20031;-35
2022/02/26 03:57:09;;;;;;;15.40;5.40;;;;;;;0.58;100.00;103396.66;5133699;27;20032;-35
2022/02/26 03:59:34;;;;;;;10.98;5.03;;;;;;;0.53;100.00;103406.75;5134294;28;20023;-35
2022/02/26 04:01:59;;;;;;;13.23;4.87;;;;;;;0.59;100.00;103405.53;5134233;27;20034;-35
2022/02/26 04:04:25;;;;;;;13.10;4.80;;;;;;;0.50;100.00;103410.50;5137534;27;20027;-35
2022/02/26 04:06:50;;;;;;;13.57;5.40;;;;;;;0.42;100.00;103417.28;5137612;27;20027;-35
2022/02/26 04:09:17;;;;;;;10.88;3.88;;;;;;;0.53;100.00;103406.75;5137615;27;20496;-35
2022/02/26 04:11:42;;;;;;;11.15;4.60;;;;;;;0.51;100.00;103417.53;5137684;27;20098;-35
2022/02/26 04:14:07;;;;;;;12.20;5.00;;;;;;;0.47;100.00;103420.50;5138244;27;20118;-35
2022/02/26 04:16:33;;;;;;;11.33;4.70;;;;;;;0.60;100.00;103420.53;5136734;27;20023;-35
2022/02/26 04:18:58;;;;;;;18.33;5.35;;;;;;;0.57;100.00;103426.06;5137633;27;20485;-35
2022/02/26 04:21:25;;;;;;;12.00;4.90;;;;;;;0.46;100.00;103440.09;5137943;27;20093;-35
2022/02/26 04:23:50;;;;;;;;;;;;;;;0.57;100.00;103432.22;5138012;27;20019;-35
2022/02/26 04:26:16;;;;;;;8.82;4.10;;;;;;;0.47;100.00;103431.13;5137790;27;20343;-35
2022/02/26 04:28:41;;;;;;;10.70;4.83;;;;;;;0.49;100.00;103434.56;5137476;27;20046;-35
2022/02/26 04:31:07;;;;;;;13.80;4.50;;;;;;;0.50;100.00;103441.59;5137125;27;20049;-34
2022/02/26 04:33:32;;;;;;;11.77;4.40;;;;;;;0.59;100.00;103440.13;5137752;27;20752;-34
2022/02/26 04:35:58;;;;;;;10.07;4.30;;;;;;;0.48;100.00;103439.00;5137307;27;20119;-35
2022/02/26 04:38:25;;;;;;;10.32;4.20;;;;;;;0.44;100.00;103434.00;5137155;27;20083;-36
2022/02/26 04:40:50;;;;;;;14.57;4.80;;;;;;;0.35;100.00;103432.81;5137782;27;20023;-35
2022/02/26 04:43:16;;;;;;;13.85;5.18;;;;;;;0.29;100.00;103433.19;5137136;27;20035;-35
2022/02/26 04:45:41;;;;;;;9.65;4.90;;;;;;;0.36;100.00;103445.16;5137756;27;20023;-35
2022/02/26 04:48:07;;;;;;;10.90;4.67;;;;;;;0.30;100.00;103445.56;5137325;27;20445;-35
2022/02/26 04:50:32;;;;;;;14.50;5.87;;;;;;;0.29;100.00;103448.31;5137461;27;20522;-35
2022/02/26 04:52:58;;;;;;;15.40;5.37;;;;;;;0.16;100.00;103451.78;5136659;27;20026;-35
2022/02/26 04:55:23;;;;;;;11.27;4.77;;;;;;;0.19;100.00;103432.94;5136979;27;20058;-35
2022/02/26 04:57:48;;;;;;;8.20;4.07;;;;;;;0.24;100.00;103456.59;5136860;27;20273;-35
2022/02/26 05:00:14;;;;;;;11.20;4.77;;;;;;;0.27;100.00;103450.22;5136266;27;20110;-35
2022/02/26 05:02:40;;;;;;;10.00;5.00;;;;;;;0.27;100.00;103445.75;5137072;27;20523;-35
2022/02/26 05:05:07;;;;;;;7.72;4.28;;;;;;;0.38;100.00;103437.06;5137029;27;20027;-35
2022/02/26 05:07:32;;;;;;;;;;;;;;;0.42;100.00;103455.41;5137037;27;20023;-35
2022/02/26 05:09:57;;;;;;;10.03;4.47;;;;;;;0.15;100.00;103450.09;5136278;27;19918;-35
2022/02/26 05:12:23;;;;;;;8.83;4.50;;;;;;;0.28;100.00;103457.25;5136296;27;20030;-35
2022/02/26 05:14:48;;;;;;;8.17;4.73;;;;;;;0.28;100.00;103439.47;5137162;27;20019;-35
2022/02/26 05:17:14;;;;;;;9.77;4.95;;;;;;;0.19;100.00;103442.72;5136449;27;20050;-35
2022/02/26 05:19:39;;;;;;;16.20;5.47;;;;;;;0.24;100.00;103451.28;5137067;27;20410;-35
2022/02/26 05:22:05;;;;;;;12.45;5.18;;;;;;;0.18;100.00;103451.69;5136388;27;20060;-35
2022/02/26 05:24:31;;;;;;;11.23;5.27;;;;;;;0.15;100.00;103450.09;5136164;27;20539;-35
2022/02/26 05:26:56;;;;;;;13.23;4.87;;;;;;;0.07;100.00;103439.06;5136326;27;20023;-35
2022/02/26 05:29:21;;;;;;;10.20;4.43;;;;;;;0.12;100.00;103452.94;5136557;27;20454;-35
2022/02/26 05:31:46;;;;;;;11.17;4.30;;;;;;;0.16;100.00;103448.28;5136204;27;20031;-35
2022/02/26 05:34:12;;;;;;;10.50;4.70;;;;;;;0.12;100.00;103455.59;5136785;27;20108;-35
2022/02/26 05:36:37;;;;;;;12.87;4.40;;;;;;;0.21;100.00;103462.13;5136646;27;20035;-35
2022/02/26 05:39:03;;;;;;;18.20;5.03;;;;;;;0.03;100.00;103460.66;5136194;27;20020;-35
2022/02/26 05:41:28;;;;;;;9.35;4.40;;;;;;;0.01;100.00;103447.44;5136858;27;20424;-35
2022/02/26 05:43:54;;;;;;;8.60;3.97;;;;;;;0.15;100.00;103468.72;5135995;27;20103;-35
2022/02/26 05:46:19;;;;;;;11.43;4.67;;;;;;;0.13;100.00;103470.59;5135960;27;20033;-35
2022/02/26 05:48:45;;;;;;;8.37;4.80;;;;;;;0.06;100.00;103453.34;5135837;27;20212;-35
2022/02/26 05:51:10;;;;;;;8.50;4.47;;;;;;;-0.07;100.00;103433.78;5135750;27;20055;-35
2022/02/26 05:53:35;;;;;;;14.33;5.27;;;;;;;-0.05;100.00;103454.03;5135730;27;20035;-35
2022/02/26 05:56:02;;;;;;;11.63;4.70;;;;;;;0.02;100.00;103466.94;5136115;27;20027;-35
2022/02/26 05:58:27;;;;;;;;;;;;;;;0.11;100.00;103474.31;5136125;27;20129;-35
2022/02/26 06:00:52;;;;;;;12.10;5.23;;;;;;;0.05;100.00;103472.03;5135717;27;20051;-35
2022/02/26 06:03:18;;;;;;;9.50;4.93;;;;;;;0.06;100.00;103479.09;5135600;27;20062;-35
2022/02/26 06:05:44;;;;;;;12.13;5.43;;;;;;;0.00;100.00;103480.34;5136073;27;20031;-35
2022/02/26 06:08:09;;;;;;;17.98;5.90;;;;;;;-0.14;100.00;103473.22;5135505;27;20164;-35
2022/02/26 06:10:35;;;;;;;12.63;5.20;;;;;;;-0.09;100.00;103475.59;5136176;27;20023;-35
2022/02/26 06:13:00;;;;;;;16.07;4.87;;;;;;;-0.01;100.00;103483.91;5135781;27;20031;-35
2022/02/26 06:15:26;;;;;;;10.00;5.40;;;;;;;0.01;100.00;103486.50;5135738;27;20446;-36
2022/02/26 06:17:51;;;;;;;11.40;5.43;;;;;;;-0.10;100.00;103474.75;5135414;27;20019;-35
2022/02/26 06:20:17;;;;;;;12.40;5.18;;;;;;;-0.11;100.00;103488.13;5135295;27;20023;-36
2022/02/26 06:22:43;;;;;;;11.30;5.70;;;;;;;-0.06;100.00;103497.50;5135254;27;20036;-36
2022/02/26 06:25:08;;;;;;;10.53;5.57;;;;;;;-0.10;100.00;103493.38;5134549;27;20066;-36
2022/02/26 06:27:42;;;;;;;10.90;5.13;;;;;;;-0.09;100.00;103503.03;5134873;27;20264;-36
2022/02/26 06:30:08;;;;;;;9.90;4.75;;;;;;;-0.05;100.00;103501.03;5135327;27;20034;-36
2022/02/26 06:32:36;;;;;;;10.80;4.80;;;;;;;-0.08;100.00;103509.22;5134745;27;20141;-36
2022/02/26 06:35:01;;;;;;;11.93;5.38;;;;;;;-0.15;100.00;103495.44;5135847;27;20102;-36
2022/02/26 06:37:27;;;;;;;16.20;7.30;;;;;;;-0.17;100.00;103502.66;5135047;27;20109;-36
2022/02/26 06:39:52;;;;;;;13.33;5.37;;;;;;;-0.18;100.00;103510.75;5135262;27;20083;-35
2022/02/26 06:42:18;;;;;;;10.27;5.20;;;;;;;-0.17;100.00;103520.44;5134907;27;20053;-36
2022/02/26 06:44:43;;;;;;;11.33;5.37;;;;;;;-0.08;100.00;103522.50;5135442;27;20038;-36
2022/02/26 06:47:09;;;;;;;11.48;5.28;;;;;;;-0.15;100.00;103497.22;5134789;27;20024;-36
2022/02/26 06:49:34;;;;;;;13.93;5.30;;;;;;;-0.04;100.00;103506.28;5135320;27;20106;-36
2022/02/26 06:52:00;;;;;;;9.50;4.83;;;;;;;-0.05;100.00;103520.53;5134718;27;20076;-36
2022/02/26 06:54:26;;;;;;;13.77;5.95;;;;;;;-0.11;100.00;103533.34;5135035;27;20460;-36
2022/02/26 06:56:52;;;;;;;12.52;5.63;;;;;;;-0.05;100.00;103531.16;5134905;27;20023;-36
2022/02/26 06:59:18;;;;;;;9.20;5.22;;;;;;;-0.06;100.00;103526.78;5134562;27;20049;-36
2022/02/26 07:01:45;;;;;;;11.05;5.35;;;;;;;0.00;100.00;103522.91;5134522;27;20031;-36
2022/02/26 07:04:12;;;;;;;12.52;5.85;;;;;;;0.02;100.00;103528.13;5135017;27;20023;-36
2022/02/26 07:06:42;;;;;;;10.00;5.22;;;;;;;0.07;100.00;103540.16;5134790;27;20034;-36
2022/02/26 07:09:09;;;;;;;14.63;5.78;;;;;;;0.11;100.00;103519.56;5133243;27;20031;-36
2022/02/26 07:11:35;;;;;;;16.67;6.60;;;;;;;0.15;100.00;103532.56;5134416;27;20440;-36
2022/02/26 07:14:00;;;;;;;11.80;5.50;;;;;;;0.12;100.00;103523.91;5134411;27;20118;-36
2022/02/26 07:16:26;;;;;;;11.37;5.80;;;;;;;0.22;100.00;103546.34;5134729;27;20028;-35
2022/02/26 07:18:51;;;;;;;11.50;5.90;;;;;;;0.21;100.00;103553.47;5134663;27;20045;-35
2022/02/26 07:21:16;;;;;;;12.53;5.60;;;;;;;0.28;100.00;103547.75;5133983;27;20023;-35
2022/02/26 07:23:42;;;;;;;10.07;5.23;;;;;;;0.43;100.00;103552.09;5134379;27;20023;-35
2022/02/26 07:26:07;;;;;;;10.53;5.83;;;;;;;0.22;100.00;103541.00;5134899;28;20027;-36
2022/02/26 07:28:33;;;;;;;9.23;5.30;;;;;;;0.59;100.00;103567.97;5134848;28;20023;-36
2022/02/26 07:30:58;;;;;;;10.38;5.22;;;;;;;0.57;100.00;103560.03;5134500;28;20027;-36
2022/02/26 07:33:23;;;;;;;19.63;6.53;;;;;;;0.45;100.00;103553.72;5134457;28;20160;-36
2022/02/26 07:35:49;;;;;;;11.47;6.33;;;;;;;0.65;100.00;103552.44;5134744;28;20024;-36
2022/02/26 07:38:14;;;;;;;18.77;7.50;;;;;;;0.69;100.00;103556.59;5135956;27;20050;-36
2022/02/26 07:40:42;;;;;;;16.10;6.37;;;;;;;0.71;100.00;103556.50;5138750;27;20027;-36
2022/02/26 07:43:08;;;;;;;12.77;6.20;;;;;;;0.84;100.00;103564.53;5138314;27;20068;-36
2022/02/26 07:45:33;;;;;;;14.55;5.82;;;;;;;0.90;100.00;103562.31;5138970;27;20105;-36
2022/02/26 07:47:59;;;;;;;11.23;5.90;;;;;;;1.02;100.00;103566.84;5138608;27;20054;-36
2022/02/26 07:50:24;;;;;;;13.60;6.60;;;;;;;0.91;100.00;103573.84;5139090;27;20109;-36
2022/02/26 07:52:49;;;;;;;11.47;6.10;;;;;;;1.03;100.00;103562.38;5138233;27;20030;-36
2022/02/26 07:55:15;;;;;;;13.67;7.20;;;;;;;0.88;100.00;103558.03;5138512;27;20023;-36
2022/02/26 07:57:40;;;;;;;11.25;7.18;;;;;;;0.99;100.00;103574.19;5137855;27;20023;-36
2022/02/26 08:00:08;;;;;;;13.57;8.00;;;;;;;1.07;100.00;103582.50;5138117;27;20031;-36
2022/02/26 08:02:33;;;;;;;13.07;7.10;;;;;;;1.04;100.00;103566.75;5137739;27;20015;-36
2022/02/26 08:04:58;;;;;;;11.53;6.87;;;;;;;1.17;100.00;103564.97;5137132;27;20027;-36
2022/02/26 08:07:24;;;;;;;9.77;7.00;;;;;;;1.14;100.00;103565.16;5138005;27;20112;-35
2022/02/26 08:09:49;;;;;;;7.73;6.47;;;;;;;1.32;100.00;103575.53;5137945;27;20027;-36
2022/02/26 08:12:15;;;;;;;6.23;5.43;;;;;;;1.41;100.00;103564.25;5137590;27;20027;-35
2022/02/26 08:14:41;;;;;;;7.60;5.87;;;;;;;1.64;100.00;103576.88;5137538;27;20055;-35
2022/02/26 08:17:06;;;;;;;8.77;7.50;;;;;;;1.50;100.00;103584.97;5137458;27;20023;-35
2022/02/26 08:19:33;;;;;;;8.55;7.18;;;;;;;1.60;100.00;103591.38;5137998;27;20031;-35
2022/02/26 08:21:58;;;;;;;9.57;7.68;;;;;;;1.68;100.00;103591.72;5137688;27;20023;-35
2022/02/26 08:24:24;;;;;;;11.65;8.05;;;;;;;1.64;100.00;103568.03;5137687;27;20444;-36
2022/02/26 08:26:50;;;;;;;14.53;8.23;;;;;;;1.82;100.00;103587.25;5137430;27;20035;-36
2022/02/26 08:29:15;;;;;;;9.65;8.23;;;;;;;2.04;100.00;103587.44;5137378;27;20027;-36
2022/02/26 08:31:42;;;;;;;15.80;9.13;;;;;;;2.10;100.00;103586.16;5137564;27;20449;-36
2022/02/26 08:34:08;;;;;;;12.07;8.23;;;;;;;2.20;100.00;103592.56;5138619;27;20047;-36
2022/02/26 08:36:33;;;;;;;16.02;9.65;;;;;;;2.26;100.00;103592.97;5138146;27;20118;-36
2022/02/26 08:38:59;;;;;;;15.00;8.77;;;;;;;2.36;100.00;103597.66;5137244;27;20052;-36
2022/02/26 08:41:24;;;;;;;12.10;8.73;;;;;;;2.43;100.00;103594.44;5138291;27;20277;-36
2022/02/26 08:43:49;;;;;;;14.97;9.47;;;;;;;2.39;100.00;103594.75;5137054;27;20505;-36
2022/02/26 08:46:15;;;;;;;17.40;10.47;;;;;;;2.35;100.00;103590.63;5137619;27;20110;-36
2022/02/26 08:48:40;;;;;;;13.35;9.45;;;;;;;2.54;100.00;103586.50;5135707;27;20079;-35
2022/02/26 08:51:06;;;;;;;15.13;8.50;;;;;;;2.71;100.00;103587.94;5137163;27;20479;-36
2022/02/26 08:53:32;;;;;;;17.90;9.80;;;;;;;2.72;100.00;103597.66;5137169;27;20031;-36
2022/02/26 08:55:57;;;;;;;15.90;10.02;;;;;;;2.82;100.00;103598.69;5137966;27;20027;-36
2022/02/26 08:58:23;;;;;;;15.83;9.83;;;;;;;3.03;100.00;103595.41;5137606;27;20027;-36
2022/02/26 09:00:49;;;;;;;14.10;9.37;;;;;;;2.94;100.00;103588.06;5137198;27;20826;-36
2022/02/26 09:03:15;;;;;;;;;;;;;;;3.18;100.00;103596.09;5136947;27;20471;-36
2022/02/26 09:05:40;;;;;;;16.85;8.85;;;;;;;3.17;100.00;103594.34;5137402;27;19907;-36
2022/02/26 09:08:05;;;;;;;18.73;9.43;;;;;;;3.23;100.00;103588.56;5136755;27;20068;-36
2022/02/26 09:10:31;;;;;;;14.23;8.53;;;;;;;3.40;100.00;103596.16;5136962;27;20059;-36
2022/02/26 09:12:56;;;;;;;14.63;9.90;;;;;;;3.47;100.00;103593.88;5136368;27;20028;-36
2022/02/26 09:15:22;;;;;;;14.03;9.43;;;;;;;3.57;100.00;103590.38;5136683;27;20022;-36
2022/02/26 09:17:47;;;;;;;15.80;10.37;;;;;;;3.64;100.00;103593.44;5136594;27;20280;-36
2022/02/26 09:20:13;;;;;;;16.17;11.17;;;;;;;3.64;100.00;103589.91;5137008;27;20030;-35
2022/02/26 09:22:39;;;;;;;17.57;11.63;;;;;;;3.77;100.00;103588.00;5135378;27;20030;-36
2022/02/26 09:25:06;;;;;;;17.23;11.80;;;;;;;3.74;100.00;103556.09;5135705;27;20067;-36
2022/02/26 09:27:31;;;;;;;20.42;12.23;;;;;;;3.97;100.00;103586.44;5135958;27;20528;-36
2022/02/26 09:29:57;;;;;;;17.67;12.37;;;;;;;4.04;100.00;103595.66;5136099;27;20065;-36
2022/02/26 09:32:23;;;;;;;;;;;;;;;4.19;100.00;103594.44;5136589;27;20027;-36
2022/02/26 09:34:48;;;;;;;21.13;12.95;;;;;;;4.09;100.00;103572.06;5136271;27;20346;-36
2022/02/26 09:37:14;;;;;;;17.83;13.00;;;;;;;4.30;100.00;103590.94;5136296;27;20031;-36
2022/02/26 09:39:39;;;;;;;18.33;12.60;;;;;;;4.36;100.00;103593.13;5134886;27;20467;-36
2022/02/26 09:42:05;;;;;;;21.50;14.73;;;;;;;4.45;99.77;103597.75;5136441;27;20035;-35
2022/02/26 09:44:30;;;;;;;20.38;14.52;;;;;;;4.53;100.00;103589.06;5135866;27;20054;-35
2022/02/26 09:46:56;;;;;;;20.63;14.03;;;;;;;4.68;100.00;103595.88;5134801;27;20031;-35
2022/02/26 09:49:21;;;;;;;21.42;12.93;;;;;;;4.73;99.17;103596.34;5136768;27;20356;-35
2022/02/26 09:51:47;;;;;;;19.70;12.60;;;;;;;4.80;98.55;103592.19;5136667;27;20077;-35
2022/02/26 09:54:15;;;;;;;22.63;11.88;;;;;;;4.90;99.13;103587.78;5136539;27;20019;-35
2022/02/26 09:56:41;;;;;;;18.42;11.25;;;;;;;4.94;98.73;103593.75;5136704;27;20076;-35
2022/02/26 09:59:06;;;;;;;22.73;14.70;;;;;;;5.06;98.28;103595.41;5136631;27;20027;-35
2022/02/26 10:01:32;;;;;;;23.27;13.60;;;;;;;5.13;97.07;103585.03;5135247;27;20083;-36
2022/02/26 10:04:09;;;;;;;19.27;12.23;;;;;;;5.24;97.29;103587.66;5135562;27;20480;-35
2022/02/26 10:06:35;;;;;;;25.38;13.27;;;;;;;5.42;97.01;103593.31;5135850;27;20039;-36
2022/02/26 10:09:02;;;;;;;20.77;9.07;;;;;;;5.46;95.16;103591.19;5134809;27;20125;-36
2022/02/26 10:11:35;;;;;;;16.55;6.47;;;;;;;5.51;95.10;103579.06;5134394;27;20034;-37
2022/02/26 10:14:07;;;;;;;17.77;7.85;;;;;;;5.65;94.02;103585.97;5135649;27;20027;-35
2022/02/26 10:16:41;;;;;;;18.75;8.25;;;;;;;5.73;93.27;103586.16;5135863;27;20471;-36
2022/02/26 10:19:07;;;;;;;18.33;7.47;;;;;;;5.79;93.33;103593.69;5135277;27;20477;-36
2022/02/26 10:21:32;;;;;;;14.70;8.02;;;;;;;5.84;94.22;103574.47;5136212;27;20023;-36
2022/02/26 10:23:58;;;;;;;13.82;6.75;;;;;;;6.01;93.23;103586.50;5135954;27;20019;-36
2022/02/26 10:26:27;;;;;;;13.88;6.53;;;;;;;6.07;91.55;103580.56;5135365;27;20063;-36
2022/02/26 10:29:06;;;;;;;23.52;7.97;;;;;;;6.25;92.15;103589.72;5135304;27;20030;-35
2022/02/26 10:31:52;;;;;;;14.38;6.97;;;;;;;6.21;91.82;103585.59;5135026;27;20054;-35
2022/02/26 10:34:31;;;;;;;13.90;6.50;;;;;;;6.09;91.54;103547.19;5135678;27;20376;-35
2022/02/26 10:37:11;;;;;;;15.23;6.68;;;;;;;6.29;89.96;103563.41;5135051;27;20114;-35
2022/02/26 10:39:37;;;;;;;13.13;6.35;;;;;;;6.43;88.53;103576.47;5134957;27;20035;-35
2022/02/26 10:42:06;;;;;;;15.73;6.88;;;;;;;6.65;88.54;103570.03;5134695;27;20084;-35
2022/02/26 10:44:31;;;;;;;15.93;7.03;;;;;;;6.77;87.89;103563.50;5134545;27;20030;-35
2022/02/26 10:47:15;;;;;;;11.13;5.53;;;;;;;6.72;87.08;103565.78;5134903;27;20387;-35
2022/02/26 10:49:46;;;;;;;13.18;6.25;;;;;;;6.55;87.22;103574.53;5135029;27;20023;-35
2022/02/26 10:52:14;;;;;;;13.45;6.18;;;;;;;6.67;88.09;103557.28;5134279;27;20379;-35
2022/02/26 10:54:41;;;;;;;13.25;5.47;;;;;;;6.75;84.85;103557.44;5135089;27;20031;-36
2022/02/26 10:57:09;;;;;;;14.38;4.18;;;;;;;6.90;85.02;103564.09;5134402;27;20027;-36
2022/02/26 10:59:42;;;;;;;13.60;5.22;;;;;;;6.90;83.23;103563.25;5135319;27;20027;-36
2022/02/26 11:02:22;;;;;;;8.82;4.10;;;;;;;6.88;82.43;103544.56;5134649;27;20102;-36
2022/02/26 11:04:49;;;;;;;14.32;4.05;;;;;;;6.84;80.51;103545.00;5134658;27;20031;-36
2022/02/26 11:07:15;;;;;;;9.60;3.70;;;;;;;6.91;80.71;103549.66;5134810;27;20075;-36
2022/02/26 11:09:43;;;;;;;9.20;4.18;;;;;;;7.05;80.80;103550.22;5135180;27;20110;-35
2022/02/26 11:12:12;;;;;;;11.63;4.10;;;;;;;7.02;81.34;103545.97;5134330;27;20378;-36
2022/02/26 11:14:44;;;;;;;12.93;4.80;;;;;;;6.88;80.02;103533.81;5135385;27;20080;-36